createdAt,value
2022-09-13T00:02:17.888Z,66.98
2022-09-13T00:04:45.736Z,66.90
2022-09-13T00:07:13.449Z,67.04
2022-09-13T00:09:41.164Z,66.40
2022-09-13T00:12:10.276Z,66.16
2022-09-13T00:14:38.048Z,65.95
2022-09-13T00:17:05.815Z,67.51
2022-09-13T00:19:33.913Z,67.26
2022-09-13T00:22:01.602Z,67.71
2022-09-13T00:24:29.324Z,67.48
2022-09-13T00:26:57.008Z,67.42
2022-09-13T00:29:26.084Z,67.04
2022-09-13T00:31:54.378Z,67.43
2022-09-13T00:34:22.229Z,67.67
2022-09-13T00:36:49.959Z,67.19
2022-09-13T00:39:17.655Z,67.74
2022-09-13T00:41:45.425Z,67.60
2022-09-13T00:44:46.745Z,66.93
2022-09-13T00:47:20.661Z,67.81
2022-09-13T00:49:51.409Z,68.15
2022-09-13T00:52:24.123Z,67.51
2022-09-13T00:54:56.877Z,67.36
2022-09-13T00:57:25.549Z,66.98
2022-09-13T00:59:59.615Z,67.59
2022-09-13T01:02:29.786Z,67.41
2022-09-13T01:04:57.709Z,67.26
2022-09-13T01:07:25.555Z,67.03
2022-09-13T01:09:54.304Z,67.14
2022-09-13T01:12:33.314Z,66.99
2022-09-13T01:15:05.138Z,67.36
2022-09-13T01:17:35.936Z,67.32
2022-09-13T01:20:07.687Z,67.85
2022-09-13T01:23:17.499Z,68.86
2022-09-13T01:26:18.427Z,67.93
2022-09-13T01:29:10.841Z,68.05
2022-09-13T01:31:48.972Z,68.70
2022-09-13T01:34:29.336Z,68.32
2022-09-13T01:37:15.743Z,67.41
2022-09-13T01:39:59.181Z,67.94
2022-09-13T01:42:35.387Z,68.31
2022-09-13T01:45:17.911Z,68.23
2022-09-13T01:47:54.646Z,67.42
2022-09-13T01:50:31.855Z,67.32
2022-09-13T01:53:06.375Z,67.49
2022-09-13T01:55:40.044Z,67.30
2022-09-13T01:58:18.105Z,67.60
2022-09-13T02:00:53.423Z,67.70
2022-09-13T02:03:29.579Z,67.22
2022-09-13T02:06:01.799Z,68.01
2022-09-13T02:08:38.792Z,67.49
2022-09-13T02:11:11.626Z,67.66
2022-09-13T02:13:44.046Z,67.92
2022-09-13T02:16:17.640Z,67.83
2022-09-13T02:18:51.896Z,67.59
2022-09-13T02:21:23.384Z,67.19
2022-09-13T02:23:55.504Z,67.10
2022-09-13T02:26:26.398Z,67.61
2022-09-13T02:28:56.852Z,67.58
2022-09-13T02:31:30.147Z,67.92
2022-09-13T02:34:04.275Z,68.09
2022-09-13T02:36:37.768Z,67.66
2022-09-13T02:39:10.325Z,67.88
2022-09-13T02:41:47.833Z,68.43
2022-09-13T02:44:20.740Z,67.49
2022-09-13T02:47:08.010Z,68.05
2022-09-13T02:49:51.575Z,67.47
2022-09-13T02:52:25.357Z,67.03
2022-09-13T02:54:57.661Z,65.73
2022-09-13T02:57:32.292Z,65.55
2022-09-13T03:00:00.999Z,65.89
2022-09-13T03:02:33.555Z,66.33
2022-09-13T03:05:03.006Z,67.04
2022-09-13T03:07:31.017Z,67.09
2022-09-13T03:10:04.919Z,66.89
2022-09-13T03:12:53.812Z,65.88
2022-09-13T03:15:30.401Z,66.29
2022-09-13T03:18:13.505Z,65.92
2022-09-13T03:20:54.047Z,65.59
2022-09-13T03:23:37.975Z,65.72
2022-09-13T03:26:25.739Z,66.07
2022-09-13T03:29:06.207Z,65.96
2022-09-13T03:31:37.399Z,65.14
2022-09-13T03:34:12.056Z,65.60
2022-09-13T03:36:46.912Z,64.54
2022-09-13T03:39:25.667Z,65.45
2022-09-13T03:41:57.859Z,65.71
2022-09-13T03:44:27.883Z,65.41
2022-09-13T03:46:58.839Z,65.74
2022-09-13T03:49:30.055Z,66.11
2022-09-13T03:52:00.427Z,65.83
2022-09-13T03:54:31.463Z,65.62
2022-09-13T03:57:08.506Z,66.24
2022-09-13T03:59:38.692Z,67.19
2022-09-13T04:02:11.749Z,66.10
2022-09-13T04:04:40.422Z,66.21
2022-09-13T04:07:11.304Z,67.26
2022-09-13T04:09:39.344Z,65.71
2022-09-13T04:12:08.331Z,66.55
2022-09-13T04:14:36.071Z,66.99
2022-09-13T04:17:03.806Z,67.15
2022-09-13T04:19:31.806Z,67.78
2022-09-13T04:21:59.660Z,67.36
2022-09-13T04:24:30.286Z,67.21
2022-09-13T04:26:58.256Z,67.57
2022-09-13T04:29:27.259Z,67.29
2022-09-13T04:31:56.235Z,67.56
2022-09-13T04:34:24.767Z,67.44
2022-09-13T04:36:54.654Z,67.60
2022-09-13T04:39:23.835Z,66.57
2022-09-13T04:41:54.864Z,66.83
2022-09-13T04:44:24.443Z,67.03
2022-09-13T04:46:52.315Z,66.59
2022-09-13T04:49:22.030Z,66.75
2022-09-13T04:51:50.872Z,66.81
2022-09-13T04:54:18.950Z,66.48
2022-09-13T04:56:47.436Z,66.09
2022-09-13T04:59:17.071Z,66.22
2022-09-13T05:01:44.859Z,66.50
2022-09-13T05:04:12.850Z,66.11
2022-09-13T05:06:40.605Z,66.33
2022-09-13T05:09:08.352Z,66.38
2022-09-13T05:11:36.061Z,65.92
2022-09-13T05:14:05.709Z,66.16
2022-09-13T05:16:34.993Z,65.89
2022-09-13T05:19:03.672Z,65.38
2022-09-13T05:21:31.938Z,65.60
2022-09-13T05:23:59.819Z,65.04
2022-09-13T05:26:31.302Z,64.11
2022-09-13T05:28:59.804Z,64.08
2022-09-13T05:31:31.316Z,63.93
2022-09-13T05:34:03.411Z,64.06
2022-09-13T05:36:31.167Z,63.83
2022-09-13T05:39:31.841Z,64.09
2022-09-13T05:41:48.160Z,63.87
2022-09-13T05:44:15.896Z,63.71
2022-09-13T05:46:44.127Z,63.66
2022-09-13T05:49:14.680Z,63.27
2022-09-13T05:51:42.491Z,63.12
2022-09-13T05:54:12.764Z,63.06
2022-09-13T05:56:41.137Z,62.22
2022-09-13T05:59:12.648Z,62.88
2022-09-13T06:01:40.395Z,62.75
2022-09-13T06:04:08.189Z,62.47
2022-09-13T06:06:37.202Z,62.45
2022-09-13T06:09:06.624Z,62.33
2022-09-13T06:11:34.399Z,61.50
2022-09-13T06:14:02.159Z,61.38
2022-09-13T06:16:29.883Z,60.62
2022-09-13T06:18:58.891Z,60.00
2022-09-13T06:21:29.102Z,60.14
2022-09-13T06:23:58.934Z,60.16
2022-09-13T06:26:28.867Z,59.39
2022-09-13T06:28:58.517Z,58.33
2022-09-13T06:31:28.351Z,57.20
2022-09-13T06:33:58.401Z,57.47
2022-09-13T06:36:26.449Z,58.05
2022-09-13T06:38:54.265Z,56.78
2022-09-13T06:41:26.297Z,57.82
2022-09-13T06:43:55.356Z,59.01
2022-09-13T06:46:25.310Z,58.44
2022-09-13T06:48:54.144Z,58.44
2022-09-13T06:51:23.945Z,58.07
2022-09-13T06:53:53.392Z,57.01
2022-09-13T06:56:24.334Z,56.14
2022-09-13T06:58:53.699Z,55.63
2022-09-13T07:01:23.675Z,53.72
2022-09-13T07:03:54.326Z,36.88
2022-09-13T07:06:24.159Z,34.06
2022-09-13T07:08:53.065Z,39.95
2022-09-13T07:11:22.589Z,42.14
2022-09-13T07:13:52.551Z,34.99
2022-09-13T07:16:21.907Z,28.46
2022-09-13T07:18:53.249Z,27.15
2022-09-13T07:21:22.218Z,37.47
2022-09-13T07:23:50.715Z,42.92
2022-09-13T07:26:18.593Z,39.92
2022-09-13T07:28:48.988Z,35.39
2022-09-13T07:31:20.692Z,33.88
2022-09-13T07:33:49.923Z,38.08
2022-09-13T07:36:17.677Z,37.43
2022-09-13T07:38:45.880Z,40.89
2022-09-13T07:41:15.816Z,46.94
2022-09-13T07:43:44.727Z,49.65
2022-09-13T07:46:14.359Z,50.34
2022-09-13T07:48:45.466Z,50.25
2022-09-13T07:51:15.079Z,49.71
2022-09-13T07:53:44.265Z,50.25
2022-09-13T07:56:13.605Z,41.89
2022-09-13T07:58:43.178Z,46.37
2022-09-13T08:01:15.355Z,48.04
2022-09-13T08:03:45.606Z,51.19
2022-09-13T08:06:13.340Z,52.16
2022-09-13T08:08:41.052Z,52.17
2022-09-13T08:11:08.813Z,52.45
2022-09-13T08:13:36.522Z,52.27
2022-09-13T08:16:05.903Z,51.64
2022-09-13T08:18:34.315Z,51.49
2022-09-13T08:21:03.482Z,51.21
2022-09-13T08:23:31.340Z,51.28
2022-09-13T08:26:02.636Z,52.94
2022-09-13T08:28:31.560Z,53.57
2022-09-13T08:31:29.522Z,54.25
2022-09-13T08:33:58.719Z,53.64
2022-09-13T08:36:28.832Z,54.17
2022-09-13T08:38:59.215Z,53.84
2022-09-13T08:41:56.866Z,54.96
2022-09-13T08:44:29.414Z,54.19
2022-09-13T08:47:05.132Z,55.11
2022-09-13T08:49:36.905Z,56.75
2022-09-13T08:52:22.986Z,57.23
2022-09-13T08:54:54.880Z,57.30
2022-09-13T08:57:33.162Z,56.83
2022-09-13T09:00:07.110Z,53.93
2022-09-13T09:02:59.095Z,55.34
2022-09-13T09:05:30.297Z,55.65
2022-09-13T09:08:03.917Z,54.70
2022-09-13T09:10:34.661Z,55.09
2022-09-13T09:13:07.502Z,54.71
2022-09-13T09:15:42.194Z,54.38
2022-09-13T09:18:15.256Z,54.18
2022-09-13T09:20:45.382Z,54.90
2022-09-13T09:23:21.438Z,55.05
2022-09-13T09:25:52.912Z,55.02
2022-09-13T09:28:20.918Z,54.36
2022-09-13T09:31:00.006Z,53.20
2022-09-13T09:34:09.470Z,54.42
2022-09-13T09:36:43.305Z,56.06
2022-09-13T09:39:16.279Z,55.92
2022-09-13T09:41:45.273Z,55.78
2022-09-13T09:44:20.226Z,55.72
2022-09-13T09:46:51.104Z,54.72
2022-09-13T09:49:41.286Z,54.28
2022-09-13T09:52:11.706Z,53.36
2022-09-13T09:54:41.714Z,53.34
2022-09-13T09:57:09.488Z,53.17
2022-09-13T09:59:37.290Z,53.94
2022-09-13T10:02:17.117Z,55.35
2022-09-13T10:04:56.095Z,54.45
2022-09-13T10:07:32.378Z,52.58
2022-09-13T10:10:04.775Z,53.31
2022-09-13T10:12:35.238Z,52.45
2022-09-13T10:15:15.447Z,54.85
2022-09-13T10:17:43.703Z,54.95
2022-09-13T10:20:26.717Z,54.98
2022-09-13T10:23:19.727Z,54.83
2022-09-13T10:25:58.694Z,54.38
2022-09-13T10:28:27.638Z,53.00
2022-09-13T10:30:59.822Z,52.99
2022-09-13T10:33:31.375Z,53.84
2022-09-13T10:36:02.202Z,53.14
2022-09-13T10:38:33.081Z,53.52
2022-09-13T10:41:05.580Z,52.93
2022-09-13T10:43:34.098Z,53.82
2022-09-13T10:46:05.726Z,51.52
2022-09-13T10:48:47.091Z,53.07
2022-09-13T10:51:31.053Z,50.87
2022-09-13T10:54:19.299Z,50.92
2022-09-13T10:56:49.377Z,49.47
2022-09-13T10:59:22.141Z,48.90
2022-09-13T11:02:09.713Z,48.27
2022-09-13T11:05:06.905Z,46.59
2022-09-13T11:07:50.169Z,46.56
2022-09-13T11:10:25.667Z,44.92
2022-09-13T11:13:04.553Z,46.52
2022-09-13T11:15:46.217Z,44.04
2022-09-13T11:18:41.101Z,45.65
2022-09-13T11:21:24.662Z,47.38
2022-09-13T11:24:09.758Z,43.29
2022-09-13T11:26:50.111Z,42.21
2022-09-13T11:29:31.047Z,41.88
2022-09-13T11:32:09.419Z,46.13
2022-09-13T11:34:51.317Z,43.64
2022-09-13T11:37:33.950Z,42.82
2022-09-13T11:40:30.684Z,42.58
2022-09-13T11:43:13.027Z,47.39
2022-09-13T11:45:48.223Z,44.78
2022-09-13T11:48:36.642Z,44.18
2022-09-13T11:51:17.105Z,45.49
2022-09-13T11:54:04.744Z,43.85
2022-09-13T11:56:37.283Z,43.71
2022-09-13T11:59:16.637Z,45.49
2022-09-13T12:01:50.259Z,46.17
2022-09-13T12:04:25.459Z,43.84
2022-09-13T12:06:58.762Z,44.98
2022-09-13T12:09:30.619Z,43.84
2022-09-13T12:12:06.132Z,45.89
2022-09-13T12:14:42.814Z,45.01
2022-09-13T12:17:24.041Z,44.42
2022-09-13T12:19:55.430Z,43.52
2022-09-13T12:22:30.238Z,43.10
2022-09-13T12:25:03.321Z,43.42
2022-09-13T12:27:40.221Z,44.40
2022-09-13T12:30:15.980Z,44.03
2022-09-13T12:32:47.182Z,45.48
2022-09-13T12:35:22.996Z,45.79
2022-09-13T12:38:08.774Z,43.35
2022-09-13T12:40:50.730Z,46.38
2022-09-13T12:43:35.512Z,46.51
2022-09-13T12:46:19.858Z,45.42
2022-09-13T12:49:12.288Z,45.32
2022-09-13T12:51:57.068Z,44.06
2022-09-13T12:54:53.725Z,44.63
2022-09-13T12:57:35.871Z,42.44
2022-09-13T13:00:13.463Z,44.11
2022-09-13T13:02:45.509Z,43.20
2022-09-13T13:05:28.753Z,41.83
2022-09-13T13:08:00.590Z,41.99
2022-09-13T13:10:32.166Z,42.35
2022-09-13T13:13:14.138Z,43.81
2022-09-13T13:15:57.829Z,44.88
2022-09-13T13:18:30.071Z,44.18
2022-09-13T13:21:31.950Z,46.47
2022-09-13T13:24:39.013Z,46.42
2022-09-13T13:27:37.528Z,45.60
2022-09-13T13:30:41.139Z,44.51
2022-09-13T13:33:19.705Z,45.31
2022-09-13T13:35:47.970Z,46.10
2022-09-13T13:38:34.554Z,45.80
2022-09-13T13:41:12.704Z,45.23
2022-09-13T13:43:40.833Z,45.07
2022-09-13T13:46:31.184Z,46.98
2022-09-13T13:49:32.077Z,46.27
2022-09-13T13:52:37.126Z,47.58
2022-09-13T13:55:33.521Z,47.55
2022-09-13T13:58:04.048Z,47.13
2022-09-13T14:00:34.541Z,46.54
2022-09-13T14:03:15.289Z,45.67
2022-09-13T14:05:49.976Z,45.98
2022-09-13T14:08:35.543Z,46.06
2022-09-13T14:11:17.010Z,45.22
2022-09-13T14:14:01.153Z,44.55
2022-09-13T14:16:52.215Z,44.91
2022-09-13T14:19:25.252Z,45.04
2022-09-13T14:22:15.311Z,44.67
2022-09-13T14:24:46.343Z,42.50
2022-09-13T14:27:21.794Z,42.25
2022-09-13T14:29:52.011Z,41.84
2022-09-13T14:32:23.094Z,42.38
2022-09-13T14:34:59.477Z,42.03
2022-09-13T14:37:30.999Z,40.93
2022-09-13T14:40:01.553Z,42.48
2022-09-13T14:42:41.268Z,42.79
2022-09-13T14:45:14.242Z,45.43
2022-09-13T14:47:51.797Z,45.99
2022-09-13T14:50:23.662Z,46.20
2022-09-13T14:52:55.384Z,46.83
2022-09-13T14:55:27.510Z,47.00
2022-09-13T14:58:01.832Z,46.33
2022-09-13T15:00:30.576Z,46.93
2022-09-13T15:03:02.756Z,47.39
2022-09-13T15:05:34.309Z,47.42
2022-09-13T15:08:25.353Z,47.35
2022-09-13T15:10:53.654Z,47.28
2022-09-13T15:13:22.988Z,47.61
2022-09-13T15:15:51.249Z,46.92
2022-09-13T15:18:36.458Z,47.51
2022-09-13T15:21:06.446Z,47.36
2022-09-13T15:23:36.400Z,47.38
2022-09-13T15:26:07.821Z,47.22
2022-09-13T15:28:51.101Z,47.25
2022-09-13T15:31:23.872Z,47.96
2022-09-13T15:34:13.962Z,47.50
2022-09-13T15:36:42.329Z,48.53
2022-09-13T15:39:17.988Z,49.06
2022-09-13T15:41:53.711Z,48.61
2022-09-13T15:44:23.391Z,48.77
2022-09-13T15:46:53.931Z,49.17
2022-09-13T15:49:24.733Z,49.61
2022-09-13T15:51:55.643Z,49.30
2022-09-13T15:54:23.755Z,50.36
2022-09-13T15:56:52.503Z,50.47
2022-09-13T15:59:23.236Z,49.59
2022-09-13T16:01:52.953Z,50.32
2022-09-13T16:04:21.001Z,50.34
2022-09-13T16:06:49.023Z,50.95
2022-09-13T16:09:19.468Z,50.95
2022-09-13T16:11:48.060Z,50.32
2022-09-13T16:14:17.827Z,50.46
2022-09-13T16:16:49.099Z,50.57
2022-09-13T16:19:18.695Z,50.41
2022-09-13T16:21:46.652Z,50.87
2022-09-13T16:24:14.916Z,50.42
2022-09-13T16:26:43.311Z,50.34
2022-09-13T16:29:11.910Z,50.49
2022-09-13T16:31:41.095Z,51.13
2022-09-13T16:34:10.747Z,50.70
2022-09-13T16:36:38.925Z,51.61
2022-09-13T16:39:06.786Z,51.76
2022-09-13T16:41:34.565Z,51.65
2022-09-13T16:44:05.079Z,51.92
2022-09-13T16:46:36.466Z,52.11
2022-09-13T16:49:04.928Z,52.20
2022-09-13T16:51:34.234Z,52.48
2022-09-13T16:54:02.816Z,52.17
2022-09-13T16:56:31.275Z,52.66
2022-09-13T16:58:59.243Z,52.70
2022-09-13T17:01:28.842Z,52.78
2022-09-13T17:03:57.270Z,53.43
2022-09-13T17:06:26.659Z,53.19
2022-09-13T17:08:58.807Z,52.70
2022-09-13T17:11:28.128Z,53.40
2022-09-13T17:13:56.679Z,53.29
2022-09-13T17:16:28.016Z,54.02
2022-09-13T17:18:57.241Z,53.90
2022-09-13T17:21:25.559Z,54.17
2022-09-13T17:23:55.196Z,53.64
2022-09-13T17:26:23.546Z,54.89
2022-09-13T17:28:52.607Z,54.87
2022-09-13T17:31:22.134Z,55.06
2022-09-13T17:33:50.064Z,55.11
2022-09-13T17:36:18.225Z,54.88
2022-09-13T17:38:46.323Z,54.88
2022-09-13T17:41:16.989Z,55.36
2022-09-13T17:43:45.792Z,55.62
2022-09-13T17:46:15.550Z,54.91
2022-09-13T17:48:43.483Z,54.83
2022-09-13T17:51:13.368Z,54.86
2022-09-13T17:53:43.855Z,55.05
2022-09-13T17:56:11.592Z,56.34
2022-09-13T17:58:40.626Z,56.50
2022-09-13T18:01:09.999Z,56.95
2022-09-13T18:03:39.120Z,57.46
2022-09-13T18:06:09.030Z,58.47
2022-09-13T18:08:38.908Z,58.86
2022-09-13T18:11:15.493Z,58.44
2022-09-13T18:13:47.914Z,58.82
2022-09-13T18:16:21.253Z,59.65
2022-09-13T18:18:50.561Z,60.09
2022-09-13T18:21:19.715Z,59.88
2022-09-13T18:23:48.970Z,60.34
2022-09-13T18:26:18.525Z,60.28
2022-09-13T18:28:54.704Z,60.56
2022-09-13T18:31:24.038Z,61.05
2022-09-13T18:33:55.951Z,61.14
2022-09-13T18:36:24.068Z,61.23
2022-09-13T18:38:53.168Z,61.50
2022-09-13T18:41:22.476Z,61.92
2022-09-13T18:43:55.677Z,61.82
2022-09-13T18:46:26.979Z,62.17
2022-09-13T18:48:57.535Z,62.10
2022-09-13T18:51:27.446Z,62.83
2022-09-13T18:53:55.721Z,63.09
2022-09-13T18:56:26.006Z,62.88
2022-09-13T18:58:56.453Z,62.91
2022-09-13T19:01:26.652Z,62.79
2022-09-13T19:03:56.197Z,62.76
2022-09-13T19:06:26.634Z,62.96
2022-09-13T19:08:55.856Z,62.88
2022-09-13T19:11:45.153Z,63.02
2022-09-13T19:14:15.982Z,63.28
2022-09-13T19:16:44.857Z,63.64
2022-09-13T19:19:12.907Z,64.10
2022-09-13T19:21:41.097Z,64.53
2022-09-13T19:24:16.191Z,64.01
2022-09-13T19:26:45.970Z,64.15
2022-09-13T19:29:19.774Z,65.00
2022-09-13T19:31:49.610Z,64.80
2022-09-13T19:34:18.875Z,65.16
2022-09-13T19:36:49.578Z,65.10
2022-09-13T19:39:17.893Z,65.59
2022-09-13T19:41:45.689Z,65.09
2022-09-13T19:44:15.044Z,65.03
2022-09-13T19:46:47.215Z,65.49
2022-09-13T19:49:18.056Z,65.75
2022-09-13T19:51:51.517Z,65.97
2022-09-13T19:54:20.576Z,66.19
2022-09-13T19:56:48.330Z,66.13
2022-09-13T19:59:19.691Z,66.03
2022-09-13T20:01:49.316Z,65.72
2022-09-13T20:04:19.955Z,65.31
2022-09-13T20:07:12.162Z,64.93
2022-09-13T20:09:42.055Z,65.70
2022-09-13T20:12:11.378Z,66.27
2022-09-13T20:14:39.217Z,65.78
2022-09-13T20:17:08.853Z,65.97
2022-09-13T20:19:45.066Z,67.09
2022-09-13T20:22:16.922Z,66.17
2022-09-13T20:24:44.727Z,65.90
2022-09-13T20:27:12.442Z,65.53
2022-09-13T20:29:40.385Z,65.44
2022-09-13T20:32:11.023Z,64.80
2022-09-13T20:34:39.941Z,64.36
2022-09-13T20:37:07.653Z,64.08
2022-09-13T20:39:35.732Z,63.67
2022-09-13T20:42:03.567Z,64.38
2022-09-13T20:44:31.295Z,64.99
2022-09-13T20:46:59.015Z,64.81
2022-09-13T20:49:29.249Z,64.53
2022-09-13T20:51:57.136Z,64.59
2022-09-13T20:54:25.862Z,65.04
2022-09-13T20:56:53.615Z,65.24
2022-09-13T20:59:22.674Z,64.54
2022-09-13T21:01:50.828Z,65.25
2022-09-13T21:04:18.628Z,65.07
2022-09-13T21:07:05.496Z,64.79
2022-09-13T21:09:33.484Z,64.28
2022-09-13T21:12:02.375Z,64.35
2022-09-13T21:14:33.961Z,63.97
2022-09-13T21:17:06.263Z,64.12
2022-09-13T21:19:34.117Z,64.17
2022-09-13T21:22:04.093Z,64.02
2022-09-13T21:24:32.174Z,64.04
2022-09-13T21:26:59.915Z,64.49
2022-09-13T21:29:27.636Z,64.49
2022-09-13T21:31:55.894Z,64.51
2022-09-13T21:34:25.068Z,64.85
2022-09-13T21:36:52.773Z,64.61
2022-09-13T21:39:21.830Z,64.56
2022-09-13T21:41:49.888Z,64.79
2022-09-13T21:44:17.847Z,64.20
2022-09-13T21:46:46.705Z,64.14
2022-09-13T21:49:15.858Z,64.70
2022-09-13T21:51:45.481Z,65.21
2022-09-13T21:54:16.466Z,65.25
2022-09-13T21:56:50.293Z,65.06
2022-09-13T21:59:20.171Z,65.28
2022-09-13T22:01:50.405Z,65.29
2022-09-13T22:04:22.055Z,65.33
2022-09-13T22:06:52.235Z,64.97
2022-09-13T22:09:21.207Z,65.35
2022-09-13T22:11:50.556Z,65.38
2022-09-13T22:14:22.351Z,65.90
2022-09-13T22:16:52.530Z,65.81
2022-09-13T22:19:23.460Z,65.65
2022-09-13T22:21:54.111Z,65.43
2022-09-13T22:24:24.031Z,65.23
2022-09-13T22:26:55.349Z,65.51
2022-09-13T22:29:23.596Z,65.57
2022-09-13T22:31:52.727Z,65.95
2022-09-13T22:34:22.143Z,66.04
2022-09-13T22:36:50.215Z,65.45
2022-09-13T22:39:18.335Z,65.65
2022-09-13T22:41:46.459Z,65.52
2022-09-13T22:44:15.748Z,65.88
2022-09-13T22:46:44.994Z,66.09
2022-09-13T22:49:14.093Z,65.31
2022-09-13T22:51:41.895Z,65.10
2022-09-13T22:54:09.686Z,65.16
2022-09-13T22:56:37.877Z,64.91
2022-09-13T22:59:08.132Z,65.02
2022-09-13T23:01:37.940Z,64.87
2022-09-13T23:04:06.785Z,64.30
2022-09-13T23:06:35.646Z,64.59
2022-09-13T23:09:06.510Z,64.31
2022-09-13T23:11:36.588Z,64.66
2022-09-13T23:14:07.017Z,65.02
2022-09-13T23:16:38.674Z,64.56
2022-09-13T23:19:06.865Z,65.03
2022-09-13T23:21:36.969Z,65.23
2022-09-13T23:24:06.713Z,65.30
2022-09-13T23:26:35.239Z,65.53
2022-09-13T23:29:04.831Z,65.27
2022-09-13T23:31:35.062Z,64.93
2022-09-13T23:34:07.373Z,64.38
2022-09-13T23:36:38.117Z,63.71
2022-09-13T23:39:07.932Z,63.69
2022-09-13T23:41:36.082Z,64.00
2022-09-13T23:44:05.031Z,64.27
2022-09-13T23:46:32.849Z,64.34
2022-09-13T23:49:00.567Z,64.34
2022-09-13T23:51:29.829Z,64.97
2022-09-13T23:54:00.581Z,65.36
2022-09-13T23:56:29.939Z,65.46
2022-09-13T23:58:58.823Z,66.26
